sensor_id;sensor_type;location;lat;lon;timestamp;P1;durP1;ratioP1;P2;durP2;ratioP2
17345;SDS011;8790;53.590;10.002;2023-05-07T00:01:09;11.27;;;9.57;;
17345;SDS011;8790;53.590;10.002;2023-05-07T00:03:41;10.30;;;9.20;;
17345;SDS011;8790;53.590;10.002;2023-05-07T00:06:14;11.03;;;9.80;;
17345;SDS011;8790;53.590;10.002;2023-05-07T00:08:45;11.20;;;8.93;;
17345;SDS011;8790;53.590;10.002;2023-05-07T00:11:17;11.00;;;9.80;;
17345;SDS011;8790;53.590;10.002;2023-05-07T00:13:49;12.33;;;9.90;;
17345;SDS011;8790;53.590;10.002;2023-05-07T00:16:21;11.90;;;10.00;;
17345;SDS011;8790;53.590;10.002;2023-05-07T00:18:53;10.30;;;9.20;;
17345;SDS011;8790;53.590;10.002;2023-05-07T00:21:26;11.50;;;10.27;;
17345;SDS011;8790;53.590;10.002;2023-05-07T00:23:57;12.00;;;10.27;;
17345;SDS011;8790;53.590;10.002;2023-05-07T00:26:29;12.47;;;9.97;;
17345;SDS011;8790;53.590;10.002;2023-05-07T00:29:01;10.60;;;9.50;;
17345;SDS011;8790;53.590;10.002;2023-05-07T00:31:33;12.20;;;10.70;;
17345;SDS011;8790;53.590;10.002;2023-05-07T00:34:05;11.90;;;10.10;;
17345;SDS011;8790;53.590;10.002;2023-05-07T00:36:38;11.80;;;9.57;;
17345;SDS011;8790;53.590;10.002;2023-05-07T00:39:10;11.73;;;9.80;;
17345;SDS011;8790;53.590;10.002;2023-05-07T00:41:41;12.77;;;10.50;;
17345;SDS011;8790;53.590;10.002;2023-05-07T00:44:13;12.10;;;10.07;;
17345;SDS011;8790;53.590;10.002;2023-05-07T00:46:45;11.90;;;10.47;;
17345;SDS011;8790;53.590;10.002;2023-05-07T00:49:19;11.50;;;10.30;;
17345;SDS011;8790;53.590;10.002;2023-05-07T00:51:53;11.63;;;9.90;;
17345;SDS011;8790;53.590;10.002;2023-05-07T00:54:24;13.17;;;9.60;;
17345;SDS011;8790;53.590;10.002;2023-05-07T00:56:56;12.20;;;10.50;;
17345;SDS011;8790;53.590;10.002;2023-05-07T00:59:28;12.83;;;10.07;;
17345;SDS011;8790;53.590;10.002;2023-05-07T01:02:00;11.53;;;9.90;;
17345;SDS011;8790;53.590;10.002;2023-05-07T01:04:32;12.07;;;9.93;;
17345;SDS011;8790;53.590;10.002;2023-05-07T01:07:05;10.40;;;9.30;;
17345;SDS011;8790;53.590;10.002;2023-05-07T01:09:36;11.60;;;10.13;;
17345;SDS011;8790;53.590;10.002;2023-05-07T01:12:08;12.40;;;9.53;;
17345;SDS011;8790;53.590;10.002;2023-05-07T01:14:41;11.47;;;9.47;;
17345;SDS011;8790;53.590;10.002;2023-05-07T01:17:13;11.23;;;9.43;;
17345;SDS011;8790;53.590;10.002;2023-05-07T01:19:44;11.90;;;8.73;;
17345;SDS011;8790;53.590;10.002;2023-05-07T01:24:59;10.43;;;9.03;;
17345;SDS011;8790;53.590;10.002;2023-05-07T01:27:33;10.43;;;9.20;;
17345;SDS011;8790;53.590;10.002;2023-05-07T01:30:07;10.67;;;9.13;;
17345;SDS011;8790;53.590;10.002;2023-05-07T01:32:40;11.87;;;8.97;;
17345;SDS011;8790;53.590;10.002;2023-05-07T01:35:15;11.47;;;9.63;;
17345;SDS011;8790;53.590;10.002;2023-05-07T01:37:51;10.93;;;9.07;;
17345;SDS011;8790;53.590;10.002;2023-05-07T01:40:24;10.43;;;8.43;;
17345;SDS011;8790;53.590;10.002;2023-05-07T01:42:56;10.57;;;8.97;;
17345;SDS011;8790;53.590;10.002;2023-05-07T01:45:28;10.23;;;8.40;;
17345;SDS011;8790;53.590;10.002;2023-05-07T01:48:01;9.80;;;8.80;;
17345;SDS011;8790;53.590;10.002;2023-05-07T01:50:34;10.00;;;8.87;;
17345;SDS011;8790;53.590;10.002;2023-05-07T01:53:09;9.60;;;8.50;;
17345;SDS011;8790;53.590;10.002;2023-05-07T01:55:41;9.90;;;8.87;;
17345;SDS011;8790;53.590;10.002;2023-05-07T01:58:13;9.27;;;8.30;;
17345;SDS011;8790;53.590;10.002;2023-05-07T02:00:45;10.13;;;8.87;;
17345;SDS011;8790;53.590;10.002;2023-05-07T02:03:16;9.13;;;8.20;;
17345;SDS011;8790;53.590;10.002;2023-05-07T02:05:56;10.37;;;8.70;;
17345;SDS011;8790;53.590;10.002;2023-05-07T02:08:35;9.87;;;8.73;;
17345;SDS011;8790;53.590;10.002;2023-05-07T02:11:07;9.70;;;8.50;;
17345;SDS011;8790;53.590;10.002;2023-05-07T02:13:41;9.23;;;8.33;;
17345;SDS011;8790;53.590;10.002;2023-05-07T02:16:13;10.03;;;8.83;;
17345;SDS011;8790;53.590;10.002;2023-05-07T02:18:45;10.87;;;8.40;;
17345;SDS011;8790;53.590;10.002;2023-05-07T02:21:17;9.43;;;8.47;;
17345;SDS011;8790;53.590;10.002;2023-05-07T02:23:50;9.97;;;8.40;;
17345;SDS011;8790;53.590;10.002;2023-05-07T02:26:22;9.13;;;8.03;;
17345;SDS011;8790;53.590;10.002;2023-05-07T02:28:54;9.23;;;8.10;;
17345;SDS011;8790;53.590;10.002;2023-05-07T02:31:25;8.50;;;7.40;;
17345;SDS011;8790;53.590;10.002;2023-05-07T02:33:57;10.13;;;7.90;;
17345;SDS011;8790;53.590;10.002;2023-05-07T02:36:30;8.87;;;7.63;;
17345;SDS011;8790;53.590;10.002;2023-05-07T02:39:09;8.33;;;7.37;;
17345;SDS011;8790;53.590;10.002;2023-05-07T02:41:41;10.53;;;7.67;;
17345;SDS011;8790;53.590;10.002;2023-05-07T02:44:12;8.10;;;7.17;;
17345;SDS011;8790;53.590;10.002;2023-05-07T02:46:44;8.67;;;7.50;;
17345;SDS011;8790;53.590;10.002;2023-05-07T02:49:17;9.00;;;7.70;;
17345;SDS011;8790;53.590;10.002;2023-05-07T02:51:48;10.50;;;8.50;;
17345;SDS011;8790;53.590;10.002;2023-05-07T02:54:26;9.60;;;8.07;;
17345;SDS011;8790;53.590;10.002;2023-05-07T02:56:58;9.90;;;8.23;;
17345;SDS011;8790;53.590;10.002;2023-05-07T02:59:31;10.87;;;8.20;;
17345;SDS011;8790;53.590;10.002;2023-05-07T03:02:03;9.83;;;7.93;;
17345;SDS011;8790;53.590;10.002;2023-05-07T03:04:35;9.60;;;8.30;;
17345;SDS011;8790;53.590;10.002;2023-05-07T03:07:07;10.60;;;8.53;;
17345;SDS011;8790;53.590;10.002;2023-05-07T03:09:40;10.70;;;8.43;;
17345;SDS011;8790;53.590;10.002;2023-05-07T03:12:12;10.37;;;8.70;;
17345;SDS011;8790;53.590;10.002;2023-05-07T03:14:43;9.73;;;8.43;;
17345;SDS011;8790;53.590;10.002;2023-05-07T03:17:15;10.23;;;8.67;;
17345;SDS011;8790;53.590;10.002;2023-05-07T03:19:47;11.73;;;8.90;;
17345;SDS011;8790;53.590;10.002;2023-05-07T03:22:18;11.83;;;9.63;;
17345;SDS011;8790;53.590;10.002;2023-05-07T03:24:52;10.53;;;9.07;;
17345;SDS011;8790;53.590;10.002;2023-05-07T03:27:24;10.53;;;9.40;;
17345;SDS011;8790;53.590;10.002;2023-05-07T03:29:57;10.97;;;8.90;;
17345;SDS011;8790;53.590;10.002;2023-05-07T03:32:29;11.77;;;9.33;;
17345;SDS011;8790;53.590;10.002;2023-05-07T03:35:01;12.30;;;10.03;;
17345;SDS011;8790;53.590;10.002;2023-05-07T03:37:33;10.53;;;9.27;;
17345;SDS011;8790;53.590;10.002;2023-05-07T03:40:07;12.47;;;9.43;;
17345;SDS011;8790;53.590;10.002;2023-05-07T03:42:46;11.20;;;9.17;;
17345;SDS011;8790;53.590;10.002;2023-05-07T03:45:21;11.73;;;10.07;;
17345;SDS011;8790;53.590;10.002;2023-05-07T03:48:01;10.93;;;9.60;;
17345;SDS011;8790;53.590;10.002;2023-05-07T03:50:33;11.57;;;9.43;;
17345;SDS011;8790;53.590;10.002;2023-05-07T03:53:05;10.10;;;8.90;;
17345;SDS011;8790;53.590;10.002;2023-05-07T03:55:43;11.27;;;9.10;;
17345;SDS011;8790;53.590;10.002;2023-05-07T03:58:15;10.23;;;9.07;;
17345;SDS011;8790;53.590;10.002;2023-05-07T04:00:48;10.40;;;9.30;;
17345;SDS011;8790;53.590;10.002;2023-05-07T04:03:26;11.17;;;8.80;;
17345;SDS011;8790;53.590;10.002;2023-05-07T04:06:01;11.07;;;9.00;;
17345;SDS011;8790;53.590;10.002;2023-05-07T04:08:34;9.53;;;8.53;;
17345;SDS011;8790;53.590;10.002;2023-05-07T04:11:09;10.73;;;8.30;;
17345;SDS011;8790;53.590;10.002;2023-05-07T04:13:41;9.17;;;8.20;;
17345;SDS011;8790;53.590;10.002;2023-05-07T04:16:13;9.97;;;8.90;;
17345;SDS011;8790;53.590;10.002;2023-05-07T04:18:45;9.37;;;8.37;;
17345;SDS011;8790;53.590;10.002;2023-05-07T04:21:17;9.97;;;8.70;;
17345;SDS011;8790;53.590;10.002;2023-05-07T04:23:51;10.70;;;9.00;;
17345;SDS011;8790;53.590;10.002;2023-05-07T04:26:24;10.27;;;9.13;;
17345;SDS011;8790;53.590;10.002;2023-05-07T04:28:56;11.33;;;9.13;;
17345;SDS011;8790;53.590;10.002;2023-05-07T04:31:33;10.30;;;8.43;;
17345;SDS011;8790;53.590;10.002;2023-05-07T04:34:05;9.80;;;8.83;;
17345;SDS011;8790;53.590;10.002;2023-05-07T04:36:37;10.53;;;8.57;;
17345;SDS011;8790;53.590;10.002;2023-05-07T04:39:14;10.13;;;8.63;;
17345;SDS011;8790;53.590;10.002;2023-05-07T04:41:50;9.93;;;8.37;;
17345;SDS011;8790;53.590;10.002;2023-05-07T04:44:22;10.17;;;7.93;;
17345;SDS011;8790;53.590;10.002;2023-05-07T04:46:53;9.37;;;8.03;;
17345;SDS011;8790;53.590;10.002;2023-05-07T04:49:25;11.20;;;8.23;;
17345;SDS011;8790;53.590;10.002;2023-05-07T04:51:58;8.30;;;7.50;;
17345;SDS011;8790;53.590;10.002;2023-05-07T04:54:31;10.07;;;8.10;;
17345;SDS011;8790;53.590;10.002;2023-05-07T04:57:04;9.07;;;8.00;;
17345;SDS011;8790;53.590;10.002;2023-05-07T04:59:37;9.03;;;7.60;;
17345;SDS011;8790;53.590;10.002;2023-05-07T05:02:09;9.20;;;7.83;;
17345;SDS011;8790;53.590;10.002;2023-05-07T05:04:41;9.70;;;8.30;;
17345;SDS011;8790;53.590;10.002;2023-05-07T05:07:13;10.23;;;7.83;;
17345;SDS011;8790;53.590;10.002;2023-05-07T05:09:45;8.50;;;7.60;;
17345;SDS011;8790;53.590;10.002;2023-05-07T05:12:18;9.30;;;7.50;;
17345;SDS011;8790;53.590;10.002;2023-05-07T05:14:50;9.37;;;8.07;;
17345;SDS011;8790;53.590;10.002;2023-05-07T05:17:22;8.33;;;7.50;;
17345;SDS011;8790;53.590;10.002;2023-05-07T05:19:54;8.80;;;7.70;;
17345;SDS011;8790;53.590;10.002;2023-05-07T05:22:27;9.90;;;7.83;;
17345;SDS011;8790;53.590;10.002;2023-05-07T05:25:00;9.07;;;7.97;;
17345;SDS011;8790;53.590;10.002;2023-05-07T05:27:33;9.37;;;8.17;;
17345;SDS011;8790;53.590;10.002;2023-05-07T05:30:06;9.57;;;7.97;;
17345;SDS011;8790;53.590;10.002;2023-05-07T05:32:39;9.17;;;8.27;;
17345;SDS011;8790;53.590;10.002;2023-05-07T05:35:11;8.70;;;7.80;;
17345;SDS011;8790;53.590;10.002;2023-05-07T05:37:44;9.93;;;8.50;;
17345;SDS011;8790;53.590;10.002;2023-05-07T05:40:16;11.57;;;8.87;;
17345;SDS011;8790;53.590;10.002;2023-05-07T05:42:49;10.77;;;8.73;;
17345;SDS011;8790;53.590;10.002;2023-05-07T05:45:21;11.07;;;8.20;;
17345;SDS011;8790;53.590;10.002;2023-05-07T05:47:55;9.30;;;8.07;;
17345;SDS011;8790;53.590;10.002;2023-05-07T05:50:27;11.87;;;8.20;;
17345;SDS011;8790;53.590;10.002;2023-05-07T05:52:59;10.53;;;8.60;;
17345;SDS011;8790;53.590;10.002;2023-05-07T05:55:32;9.33;;;8.10;;
17345;SDS011;8790;53.590;10.002;2023-05-07T05:58:05;10.07;;;9.00;;
17345;SDS011;8790;53.590;10.002;2023-05-07T06:00:40;10.50;;;8.17;;
17345;SDS011;8790;53.590;10.002;2023-05-07T06:03:12;10.23;;;8.60;;
17345;SDS011;8790;53.590;10.002;2023-05-07T06:05:44;9.20;;;8.20;;
17345;SDS011;8790;53.590;10.002;2023-05-07T06:08:16;10.00;;;8.50;;
17345;SDS011;8790;53.590;10.002;2023-05-07T06:10:48;10.57;;;9.23;;
17345;SDS011;8790;53.590;10.002;2023-05-07T06:13:22;11.30;;;9.30;;
17345;SDS011;8790;53.590;10.002;2023-05-07T06:15:55;9.80;;;8.43;;
17345;SDS011;8790;53.590;10.002;2023-05-07T06:18:26;8.93;;;8.03;;
17345;SDS011;8790;53.590;10.002;2023-05-07T06:20:58;9.13;;;7.97;;
17345;SDS011;8790;53.590;10.002;2023-05-07T06:23:34;9.60;;;8.20;;
17345;SDS011;8790;53.590;10.002;2023-05-07T06:26:06;9.33;;;8.00;;
17345;SDS011;8790;53.590;10.002;2023-05-07T06:28:44;10.77;;;8.43;;
17345;SDS011;8790;53.590;10.002;2023-05-07T06:31:19;9.37;;;8.37;;
17345;SDS011;8790;53.590;10.002;2023-05-07T06:33:59;9.67;;;8.60;;
17345;SDS011;8790;53.590;10.002;2023-05-07T06:36:37;10.27;;;8.00;;
17345;SDS011;8790;53.590;10.002;2023-05-07T06:39:17;10.30;;;8.30;;
17345;SDS011;8790;53.590;10.002;2023-05-07T06:41:49;9.53;;;8.27;;
17345;SDS011;8790;53.590;10.002;2023-05-07T06:44:29;8.57;;;7.67;;
17345;SDS011;8790;53.590;10.002;2023-05-07T06:47:13;8.77;;;7.87;;
17345;SDS011;8790;53.590;10.002;2023-05-07T06:49:45;9.63;;;7.70;;
17345;SDS011;8790;53.590;10.002;2023-05-07T06:52:20;9.07;;;7.60;;
17345;SDS011;8790;53.590;10.002;2023-05-07T06:54:54;9.33;;;7.37;;
17345;SDS011;8790;53.590;10.002;2023-05-07T06:57:27;10.73;;;7.53;;
17345;SDS011;8790;53.590;10.002;2023-05-07T07:00:00;8.40;;;7.40;;
17345;SDS011;8790;53.590;10.002;2023-05-07T07:02:36;8.63;;;7.27;;
17345;SDS011;8790;53.590;10.002;2023-05-07T07:05:09;8.53;;;7.60;;
17345;SDS011;8790;53.590;10.002;2023-05-07T07:07:41;8.80;;;7.53;;
17345;SDS011;8790;53.590;10.002;2023-05-07T07:10:14;9.13;;;7.40;;
17345;SDS011;8790;53.590;10.002;2023-05-07T07:12:45;8.47;;;7.50;;
17345;SDS011;8790;53.590;10.002;2023-05-07T07:15:19;8.47;;;7.47;;
17345;SDS011;8790;53.590;10.002;2023-05-07T07:17:52;7.70;;;6.90;;
17345;SDS011;8790;53.590;10.002;2023-05-07T07:20:24;10.30;;;7.37;;
17345;SDS011;8790;53.590;10.002;2023-05-07T07:22:56;8.00;;;7.20;;
17345;SDS011;8790;53.590;10.002;2023-05-07T07:25:28;8.60;;;7.30;;
17345;SDS011;8790;53.590;10.002;2023-05-07T07:28:00;7.47;;;6.67;;
17345;SDS011;8790;53.590;10.002;2023-05-07T07:30:33;8.37;;;6.83;;
17345;SDS011;8790;53.590;10.002;2023-05-07T07:33:06;7.60;;;6.63;;
17345;SDS011;8790;53.590;10.002;2023-05-07T07:35:40;8.70;;;7.30;;
17345;SDS011;8790;53.590;10.002;2023-05-07T07:38:12;7.50;;;6.70;;
17345;SDS011;8790;53.590;10.002;2023-05-07T07:40:44;7.33;;;6.63;;
17345;SDS011;8790;53.590;10.002;2023-05-07T07:43:16;9.10;;;6.77;;
17345;SDS011;8790;53.590;10.002;2023-05-07T07:45:49;8.27;;;7.03;;
17345;SDS011;8790;53.590;10.002;2023-05-07T07:48:21;8.53;;;6.73;;
17345;SDS011;8790;53.590;10.002;2023-05-07T07:50:53;7.97;;;7.23;;
17345;SDS011;8790;53.590;10.002;2023-05-07T07:53:25;7.33;;;6.63;;
17345;SDS011;8790;53.590;10.002;2023-05-07T07:55:57;7.37;;;6.67;;
17345;SDS011;8790;53.590;10.002;2023-05-07T07:58:31;7.53;;;6.70;;
17345;SDS011;8790;53.590;10.002;2023-05-07T08:01:05;7.53;;;6.77;;
17345;SDS011;8790;53.590;10.002;2023-05-07T08:03:37;8.50;;;7.53;;
17345;SDS011;8790;53.590;10.002;2023-05-07T08:06:10;8.27;;;6.20;;
17345;SDS011;8790;53.590;10.002;2023-05-07T08:08:42;7.37;;;6.30;;
17345;SDS011;8790;53.590;10.002;2023-05-07T08:11:14;8.23;;;6.27;;
17345;SDS011;8790;53.590;10.002;2023-05-07T08:13:46;7.00;;;6.30;;
17345;SDS011;8790;53.590;10.002;2023-05-07T08:16:19;6.90;;;6.20;;
17345;SDS011;8790;53.590;10.002;2023-05-07T08:18:51;8.73;;;6.43;;
17345;SDS011;8790;53.590;10.002;2023-05-07T08:21:22;7.50;;;6.40;;
17345;SDS011;8790;53.590;10.002;2023-05-07T08:23:54;7.23;;;6.47;;
17345;SDS011;8790;53.590;10.002;2023-05-07T08:26:27;7.97;;;7.17;;
17345;SDS011;8790;53.590;10.002;2023-05-07T08:28:58;7.43;;;6.70;;
17345;SDS011;8790;53.590;10.002;2023-05-07T08:31:31;8.93;;;6.37;;
17345;SDS011;8790;53.590;10.002;2023-05-07T08:34:03;7.20;;;6.50;;
17345;SDS011;8790;53.590;10.002;2023-05-07T08:36:36;10.77;;;7.30;;
17345;SDS011;8790;53.590;10.002;2023-05-07T08:39:08;8.47;;;6.87;;
17345;SDS011;8790;53.590;10.002;2023-05-07T08:41:40;8.23;;;7.37;;
17345;SDS011;8790;53.590;10.002;2023-05-07T08:44:14;8.80;;;7.23;;
17345;SDS011;8790;53.590;10.002;2023-05-07T08:46:51;8.23;;;7.43;;
17345;SDS011;8790;53.590;10.002;2023-05-07T08:49:25;7.67;;;6.87;;
17345;SDS011;8790;53.590;10.002;2023-05-07T08:51:56;8.50;;;7.20;;
17345;SDS011;8790;53.590;10.002;2023-05-07T08:54:29;13.97;;;10.23;;
17345;SDS011;8790;53.590;10.002;2023-05-07T08:57:03;8.30;;;6.73;;
17345;SDS011;8790;53.590;10.002;2023-05-07T08:59:37;12.73;;;9.03;;
17345;SDS011;8790;53.590;10.002;2023-05-07T09:02:13;8.13;;;7.00;;
17345;SDS011;8790;53.590;10.002;2023-05-07T09:04:46;7.73;;;6.83;;
17345;SDS011;8790;53.590;10.002;2023-05-07T09:07:18;7.40;;;6.70;;
17345;SDS011;8790;53.590;10.002;2023-05-07T09:09:50;7.17;;;6.33;;
17345;SDS011;8790;53.590;10.002;2023-05-07T09:12:23;7.73;;;7.00;;
17345;SDS011;8790;53.590;10.002;2023-05-07T09:14:55;7.93;;;6.90;;
17345;SDS011;8790;53.590;10.002;2023-05-07T09:17:28;7.20;;;6.50;;
17345;SDS011;8790;53.590;10.002;2023-05-07T09:20:04;7.23;;;6.53;;
17345;SDS011;8790;53.590;10.002;2023-05-07T09:22:37;6.50;;;5.90;;
17345;SDS011;8790;53.590;10.002;2023-05-07T09:25:13;6.70;;;5.93;;
17345;SDS011;8790;53.590;10.002;2023-05-07T09:27:46;7.70;;;6.90;;
17345;SDS011;8790;53.590;10.002;2023-05-07T09:30:18;7.30;;;6.10;;
17345;SDS011;8790;53.590;10.002;2023-05-07T09:32:51;6.90;;;6.17;;
17345;SDS011;8790;53.590;10.002;2023-05-07T09:35:26;8.63;;;7.73;;
17345;SDS011;8790;53.590;10.002;2023-05-07T09:38:02;6.63;;;6.03;;
17345;SDS011;8790;53.590;10.002;2023-05-07T09:40:36;7.77;;;6.50;;
17345;SDS011;8790;53.590;10.002;2023-05-07T09:43:13;7.07;;;6.27;;
17345;SDS011;8790;53.590;10.002;2023-05-07T09:45:55;6.77;;;6.10;;
17345;SDS011;8790;53.590;10.002;2023-05-07T09:48:31;6.57;;;6.00;;
17345;SDS011;8790;53.590;10.002;2023-05-07T09:51:11;9.93;;;6.00;;
17345;SDS011;8790;53.590;10.002;2023-05-07T09:53:57;6.57;;;5.90;;
17345;SDS011;8790;53.590;10.002;2023-05-07T09:56:31;7.67;;;5.97;;
17345;SDS011;8790;53.590;10.002;2023-05-07T09:59:04;7.20;;;5.63;;
17345;SDS011;8790;53.590;10.002;2023-05-07T10:01:38;7.77;;;6.00;;
17345;SDS011;8790;53.590;10.002;2023-05-07T10:04:12;6.47;;;5.60;;
17345;SDS011;8790;53.590;10.002;2023-05-07T10:06:47;6.77;;;6.07;;
17345;SDS011;8790;53.590;10.002;2023-05-07T10:09:20;7.57;;;6.47;;
17345;SDS011;8790;53.590;10.002;2023-05-07T10:11:52;6.73;;;6.10;;
17345;SDS011;8790;53.590;10.002;2023-05-07T10:14:26;6.63;;;5.93;;
17345;SDS011;8790;53.590;10.002;2023-05-07T10:16:59;7.03;;;6.33;;
17345;SDS011;8790;53.590;10.002;2023-05-07T10:19:32;7.53;;;6.40;;
17345;SDS011;8790;53.590;10.002;2023-05-07T10:22:07;7.80;;;7.00;;
17345;SDS011;8790;53.590;10.002;2023-05-07T10:24:45;6.97;;;6.33;;
17345;SDS011;8790;53.590;10.002;2023-05-07T10:27:21;7.20;;;6.20;;
17345;SDS011;8790;53.590;10.002;2023-05-07T10:30:00;7.00;;;6.30;;
17345;SDS011;8790;53.590;10.002;2023-05-07T10:32:42;6.43;;;5.83;;
17345;SDS011;8790;53.590;10.002;2023-05-07T10:35:27;7.57;;;6.40;;
17345;SDS011;8790;53.590;10.002;2023-05-07T10:38:04;6.40;;;5.80;;
17345;SDS011;8790;53.590;10.002;2023-05-07T10:40:39;6.70;;;6.10;;
17345;SDS011;8790;53.590;10.002;2023-05-07T10:43:11;6.50;;;5.90;;
17345;SDS011;8790;53.590;10.002;2023-05-07T10:46:09;6.97;;;5.83;;
17345;SDS011;8790;53.590;10.002;2023-05-07T10:52:12;6.33;;;5.73;;
17345;SDS011;8790;53.590;10.002;2023-05-07T10:55:18;7.37;;;5.87;;
17345;SDS011;8790;53.590;10.002;2023-05-07T10:58:12;6.70;;;5.80;;
17345;SDS011;8790;53.590;10.002;2023-05-07T11:00:58;6.47;;;5.73;;
17345;SDS011;8790;53.590;10.002;2023-05-07T11:03:37;6.17;;;4.90;;
17345;SDS011;8790;53.590;10.002;2023-05-07T11:10:08;5.50;;;5.00;;
17345;SDS011;8790;53.590;10.002;2023-05-07T11:13:05;5.60;;;5.10;;
17345;SDS011;8790;53.590;10.002;2023-05-07T11:15:49;5.70;;;5.20;;
17345;SDS011;8790;53.590;10.002;2023-05-07T11:18:45;5.97;;;5.40;;
17345;SDS011;8790;53.590;10.002;2023-05-07T11:21:31;5.17;;;4.67;;
17345;SDS011;8790;53.590;10.002;2023-05-07T11:24:11;6.63;;;4.97;;
17345;SDS011;8790;53.590;10.002;2023-05-07T11:26:58;5.10;;;4.70;;
17345;SDS011;8790;53.590;10.002;2023-05-07T11:29:31;5.50;;;4.57;;
17345;SDS011;8790;53.590;10.002;2023-05-07T11:32:13;4.80;;;4.40;;
17345;SDS011;8790;53.590;10.002;2023-05-07T11:34:52;4.93;;;4.53;;
17345;SDS011;8790;53.590;10.002;2023-05-07T11:37:25;5.43;;;4.93;;
17345;SDS011;8790;53.590;10.002;2023-05-07T11:40:06;5.43;;;4.93;;
17345;SDS011;8790;53.590;10.002;2023-05-07T11:42:41;5.20;;;4.70;;
17345;SDS011;8790;53.590;10.002;2023-05-07T11:45:22;5.00;;;4.50;;
17345;SDS011;8790;53.590;10.002;2023-05-07T11:47:55;6.53;;;5.10;;
17345;SDS011;8790;53.590;10.002;2023-05-07T11:50:27;6.00;;;4.90;;
17345;SDS011;8790;53.590;10.002;2023-05-07T11:52:58;6.00;;;4.80;;
17345;SDS011;8790;53.590;10.002;2023-05-07T11:55:30;4.63;;;4.23;;
17345;SDS011;8790;53.590;10.002;2023-05-07T11:58:03;5.03;;;4.37;;
17345;SDS011;8790;53.590;10.002;2023-05-07T12:00:35;5.03;;;4.53;;
17345;SDS011;8790;53.590;10.002;2023-05-07T12:03:06;4.40;;;4.10;;
17345;SDS011;8790;53.590;10.002;2023-05-07T12:05:38;5.50;;;4.40;;
17345;SDS011;8790;53.590;10.002;2023-05-07T12:08:13;4.90;;;4.23;;
17345;SDS011;8790;53.590;10.002;2023-05-07T12:10:46;4.90;;;4.40;;
17345;SDS011;8790;53.590;10.002;2023-05-07T12:13:21;6.00;;;4.10;;
17345;SDS011;8790;53.590;10.002;2023-05-07T12:15:55;4.37;;;3.97;;
17345;SDS011;8790;53.590;10.002;2023-05-07T12:18:27;4.40;;;3.97;;
17345;SDS011;8790;53.590;10.002;2023-05-07T12:21:00;4.43;;;3.70;;
17345;SDS011;8790;53.590;10.002;2023-05-07T12:23:32;5.00;;;4.43;;
17345;SDS011;8790;53.590;10.002;2023-05-07T12:26:05;4.47;;;4.07;;
17345;SDS011;8790;53.590;10.002;2023-05-07T12:28:38;4.27;;;3.97;;
17345;SDS011;8790;53.590;10.002;2023-05-07T12:31:10;4.43;;;4.03;;
17345;SDS011;8790;53.590;10.002;2023-05-07T12:33:42;5.27;;;3.87;;
17345;SDS011;8790;53.590;10.002;2023-05-07T12:36:13;4.57;;;3.90;;
17345;SDS011;8790;53.590;10.002;2023-05-07T12:38:46;6.20;;;4.03;;
17345;SDS011;8790;53.590;10.002;2023-05-07T12:41:21;4.27;;;3.87;;
17345;SDS011;8790;53.590;10.002;2023-05-07T12:43:57;3.93;;;3.43;;
17345;SDS011;8790;53.590;10.002;2023-05-07T12:46:29;4.03;;;3.63;;
17345;SDS011;8790;53.590;10.002;2023-05-07T12:49:01;4.00;;;3.60;;
17345;SDS011;8790;53.590;10.002;2023-05-07T12:51:34;3.77;;;3.47;;
17345;SDS011;8790;53.590;10.002;2023-05-07T12:54:06;3.20;;;2.90;;
17345;SDS011;8790;53.590;10.002;2023-05-07T12:56:39;4.33;;;3.53;;
17345;SDS011;8790;53.590;10.002;2023-05-07T12:59:12;6.03;;;3.30;;
17345;SDS011;8790;53.590;10.002;2023-05-07T13:01:44;4.60;;;3.20;;
17345;SDS011;8790;53.590;10.002;2023-05-07T13:04:16;4.07;;;3.73;;
17345;SDS011;8790;53.590;10.002;2023-05-07T13:06:48;3.60;;;3.30;;
17345;SDS011;8790;53.590;10.002;2023-05-07T13:09:20;3.60;;;3.30;;
17345;SDS011;8790;53.590;10.002;2023-05-07T13:11:52;3.90;;;3.60;;
17345;SDS011;8790;53.590;10.002;2023-05-07T13:14:25;3.90;;;3.57;;
17345;SDS011;8790;53.590;10.002;2023-05-07T13:16:56;4.00;;;3.50;;
17345;SDS011;8790;53.590;10.002;2023-05-07T13:19:28;3.97;;;3.60;;
17345;SDS011;8790;53.590;10.002;2023-05-07T13:22:00;3.63;;;3.33;;
17345;SDS011;8790;53.590;10.002;2023-05-07T13:24:31;3.80;;;3.50;;
17345;SDS011;8790;53.590;10.002;2023-05-07T13:27:03;3.77;;;3.43;;
17345;SDS011;8790;53.590;10.002;2023-05-07T13:29:36;3.77;;;3.47;;
17345;SDS011;8790;53.590;10.002;2023-05-07T13:32:08;4.17;;;3.77;;
17345;SDS011;8790;53.590;10.002;2023-05-07T13:34:40;3.90;;;3.50;;
17345;SDS011;8790;53.590;10.002;2023-05-07T13:37:11;3.50;;;3.20;;
17345;SDS011;8790;53.590;10.002;2023-05-07T13:39:43;3.30;;;3.10;;
17345;SDS011;8790;53.590;10.002;2023-05-07T13:42:15;3.30;;;3.00;;
17345;SDS011;8790;53.590;10.002;2023-05-07T13:44:49;3.27;;;2.97;;
17345;SDS011;8790;53.590;10.002;2023-05-07T13:47:20;3.67;;;3.00;;
17345;SDS011;8790;53.590;10.002;2023-05-07T13:49:52;3.33;;;3.07;;
17345;SDS011;8790;53.590;10.002;2023-05-07T13:52:24;3.80;;;3.20;;
17345;SDS011;8790;53.590;10.002;2023-05-07T13:54:56;3.50;;;3.20;;
17345;SDS011;8790;53.590;10.002;2023-05-07T13:57:28;3.40;;;2.80;;
17345;SDS011;8790;53.590;10.002;2023-05-07T14:00:02;2.80;;;2.60;;
17345;SDS011;8790;53.590;10.002;2023-05-07T14:02:45;3.30;;;3.00;;
17345;SDS011;8790;53.590;10.002;2023-05-07T14:05:17;2.93;;;2.73;;
17345;SDS011;8790;53.590;10.002;2023-05-07T14:07:49;3.10;;;2.80;;
17345;SDS011;8790;53.590;10.002;2023-05-07T14:10:22;3.03;;;2.70;;
17345;SDS011;8790;53.590;10.002;2023-05-07T14:12:54;3.03;;;2.60;;
17345;SDS011;8790;53.590;10.002;2023-05-07T14:15:27;2.67;;;2.33;;
17345;SDS011;8790;53.590;10.002;2023-05-07T14:17:59;3.07;;;2.63;;
17345;SDS011;8790;53.590;10.002;2023-05-07T14:20:32;3.10;;;2.60;;
17345;SDS011;8790;53.590;10.002;2023-05-07T14:23:06;2.83;;;2.53;;
17345;SDS011;8790;53.590;10.002;2023-05-07T14:25:38;2.47;;;2.27;;
17345;SDS011;8790;53.590;10.002;2023-05-07T14:28:10;3.17;;;2.37;;
17345;SDS011;8790;53.590;10.002;2023-05-07T14:30:43;2.75;;;2.42;;
17345;SDS011;8790;53.590;10.002;2023-05-07T14:33:14;2.95;;;2.40;;
17345;SDS011;8790;53.590;10.002;2023-05-07T14:35:46;3.63;;;2.65;;
17345;SDS011;8790;53.590;10.002;2023-05-07T14:38:20;3.55;;;2.20;;
17345;SDS011;8790;53.590;10.002;2023-05-07T14:40:51;3.38;;;2.45;;
17345;SDS011;8790;53.590;10.002;2023-05-07T14:43:25;2.67;;;2.33;;
17345;SDS011;8790;53.590;10.002;2023-05-07T14:45:58;2.38;;;2.17;;
17345;SDS011;8790;53.590;10.002;2023-05-07T14:48:30;3.97;;;2.97;;
17345;SDS011;8790;53.590;10.002;2023-05-07T14:51:02;2.63;;;2.42;;
17345;SDS011;8790;53.590;10.002;2023-05-07T14:53:34;2.72;;;2.30;;
17345;SDS011;8790;53.590;10.002;2023-05-07T14:56:05;2.72;;;2.30;;
17345;SDS011;8790;53.590;10.002;2023-05-07T14:58:37;2.88;;;2.58;;
17345;SDS011;8790;53.590;10.002;2023-05-07T15:01:10;2.67;;;2.47;;
17345;SDS011;8790;53.590;10.002;2023-05-07T15:03:42;3.10;;;2.50;;
17345;SDS011;8790;53.590;10.002;2023-05-07T15:06:14;3.40;;;2.75;;
17345;SDS011;8790;53.590;10.002;2023-05-07T15:08:46;3.00;;;2.50;;
17345;SDS011;8790;53.590;10.002;2023-05-07T15:11:18;3.53;;;2.47;;
17345;SDS011;8790;53.590;10.002;2023-05-07T15:13:50;13.90;;;3.08;;
17345;SDS011;8790;53.590;10.002;2023-05-07T15:16:24;5.43;;;2.50;;
17345;SDS011;8790;53.590;10.002;2023-05-07T15:18:55;3.83;;;2.50;;
17345;SDS011;8790;53.590;10.002;2023-05-07T15:21:27;3.40;;;2.53;;
17345;SDS011;8790;53.590;10.002;2023-05-07T15:24:00;3.00;;;2.80;;
17345;SDS011;8790;53.590;10.002;2023-05-07T15:26:32;2.60;;;2.40;;
17345;SDS011;8790;53.590;10.002;2023-05-07T15:29:05;2.72;;;2.33;;
17345;SDS011;8790;53.590;10.002;2023-05-07T15:31:41;3.33;;;2.67;;